sensor_id;sensor_type;location;lat;lon;timestamp;temperature;humidity
23147;DHT22;11742;53.532;-1.478;2023-04-06T00:02:39;14.50;79.70
23147;DHT22;11742;53.532;-1.478;2023-04-06T00:05:48;14.50;79.70
23147;DHT22;11742;53.532;-1.478;2023-04-06T00:08:55;14.50;79.70
23147;DHT22;11742;53.532;-1.478;2023-04-06T00:12:00;14.50;79.80
23147;DHT22;11742;53.532;-1.478;2023-04-06T00:15:03;14.50;79.80
23147;DHT22;11742;53.532;-1.478;2023-04-06T00:17:50;14.50;79.80
23147;DHT22;11742;53.532;-1.478;2023-04-06T00:20:37;14.40;79.80
23147;DHT22;11742;53.532;-1.478;2023-04-06T00:23:24;14.40;79.80
23147;DHT22;11742;53.532;-1.478;2023-04-06T00:26:15;14.40;79.80
23147;DHT22;11742;53.532;-1.478;2023-04-06T00:29:07;14.40;79.80
23147;DHT22;11742;53.532;-1.478;2023-04-06T00:32:00;14.40;79.90
23147;DHT22;11742;53.532;-1.478;2023-04-06T00:34:46;14.40;79.80
23147;DHT22;11742;53.532;-1.478;2023-04-06T00:37:31;14.40;79.80
23147;DHT22;11742;53.532;-1.478;2023-04-06T00:40:17;14.40;80.00
23147;DHT22;11742;53.532;-1.478;2023-04-06T00:43:07;14.40;80.00
23147;DHT22;11742;53.532;-1.478;2023-04-06T00:46:02;14.40;80.00
23147;DHT22;11742;53.532;-1.478;2023-04-06T00:48:48;14.40;79.90
23147;DHT22;11742;53.532;-1.478;2023-04-06T00:51:39;14.40;80.00
23147;DHT22;11742;53.532;-1.478;2023-04-06T00:54:28;14.40;79.90
23147;DHT22;11742;53.532;-1.478;2023-04-06T00:57:18;14.40;80.00
23147;DHT22;11742;53.532;-1.478;2023-04-06T01:00:25;14.40;80.00
23147;DHT22;11742;53.532;-1.478;2023-04-06T01:03:14;14.40;79.90
23147;DHT22;11742;53.532;-1.478;2023-04-06T01:06:02;14.40;80.00
23147;DHT22;11742;53.532;-1.478;2023-04-06T01:08:58;14.40;80.00
23147;DHT22;11742;53.532;-1.478;2023-04-06T01:11:43;14.40;80.00
23147;DHT22;11742;53.532;-1.478;2023-04-06T01:14:29;14.40;80.00
23147;DHT22;11742;53.532;-1.478;2023-04-06T01:17:16;14.30;80.00
23147;DHT22;11742;53.532;-1.478;2023-04-06T01:20:08;14.40;80.00
23147;DHT22;11742;53.532;-1.478;2023-04-06T01:22:55;14.30;80.00
23147;DHT22;11742;53.532;-1.478;2023-04-06T01:25:42;14.40;80.10
23147;DHT22;11742;53.532;-1.478;2023-04-06T01:28:27;14.30;80.00
23147;DHT22;11742;53.532;-1.478;2023-04-06T01:31:14;14.30;80.00
23147;DHT22;11742;53.532;-1.478;2023-04-06T01:34:05;14.30;80.10
23147;DHT22;11742;53.532;-1.478;2023-04-06T01:36:56;14.30;80.10
23147;DHT22;11742;53.532;-1.478;2023-04-06T01:39:55;14.30;80.10
23147;DHT22;11742;53.532;-1.478;2023-04-06T01:42:49;14.30;80.10
23147;DHT22;11742;53.532;-1.478;2023-04-06T01:45:46;14.30;80.10
23147;DHT22;11742;53.532;-1.478;2023-04-06T01:48:36;14.30;80.20
23147;DHT22;11742;53.532;-1.478;2023-04-06T01:51:40;14.30;80.20
23147;DHT22;11742;53.532;-1.478;2023-04-06T01:54:25;14.30;80.20
23147;DHT22;11742;53.532;-1.478;2023-04-06T01:57:11;14.30;80.20
23147;DHT22;11742;53.532;-1.478;2023-04-06T02:00:03;14.30;80.20
23147;DHT22;11742;53.532;-1.478;2023-04-06T02:02:52;14.30;80.20
23147;DHT22;11742;53.532;-1.478;2023-04-06T02:05:44;14.30;80.20
23147;DHT22;11742;53.532;-1.478;2023-04-06T02:08:33;14.30;80.20
23147;DHT22;11742;53.532;-1.478;2023-04-06T02:11:21;14.30;80.30
23147;DHT22;11742;53.532;-1.478;2023-04-06T02:14:14;14.30;80.20
23147;DHT22;11742;53.532;-1.478;2023-04-06T02:17:30;14.30;80.20
23147;DHT22;11742;53.532;-1.478;2023-04-06T02:20:19;14.30;80.30
23147;DHT22;11742;53.532;-1.478;2023-04-06T02:23:06;14.30;80.30
23147;DHT22;11742;53.532;-1.478;2023-04-06T02:25:55;14.30;80.40
23147;DHT22;11742;53.532;-1.478;2023-04-06T02:28:41;14.30;80.40
23147;DHT22;11742;53.532;-1.478;2023-04-06T02:31:25;14.30;80.40
23147;DHT22;11742;53.532;-1.478;2023-04-06T02:34:14;14.30;80.40
23147;DHT22;11742;53.532;-1.478;2023-04-06T02:37:20;14.30;80.40
23147;DHT22;11742;53.532;-1.478;2023-04-06T02:40:05;14.30;80.50
23147;DHT22;11742;53.532;-1.478;2023-04-06T02:42:55;14.30;80.60
23147;DHT22;11742;53.532;-1.478;2023-04-06T02:45:44;14.30;80.50
23147;DHT22;11742;53.532;-1.478;2023-04-06T02:48:33;14.30;80.50
23147;DHT22;11742;53.532;-1.478;2023-04-06T02:51:20;14.30;80.60
23147;DHT22;11742;53.532;-1.478;2023-04-06T02:54:07;14.20;80.60
23147;DHT22;11742;53.532;-1.478;2023-04-06T02:57:12;14.20;80.60
23147;DHT22;11742;53.532;-1.478;2023-04-06T03:00:03;14.30;80.60
23147;DHT22;11742;53.532;-1.478;2023-04-06T03:02:47;14.20;80.60
23147;DHT22;11742;53.532;-1.478;2023-04-06T03:05:32;14.30;80.60
23147;DHT22;11742;53.532;-1.478;2023-04-06T03:08:27;14.20;80.60
23147;DHT22;11742;53.532;-1.478;2023-04-06T03:11:12;14.30;80.70
23147;DHT22;11742;53.532;-1.478;2023-04-06T03:13:59;14.20;80.70
23147;DHT22;11742;53.532;-1.478;2023-04-06T03:16:50;14.20;80.70
23147;DHT22;11742;53.532;-1.478;2023-04-06T03:19:53;14.20;80.70
23147;DHT22;11742;53.532;-1.478;2023-04-06T03:22:50;14.20;80.70
23147;DHT22;11742;53.532;-1.478;2023-04-06T03:25:39;14.20;80.70
23147;DHT22;11742;53.532;-1.478;2023-04-06T03:28:31;14.20;80.80
23147;DHT22;11742;53.532;-1.478;2023-04-06T03:31:35;14.20;80.80
23147;DHT22;11742;53.532;-1.478;2023-04-06T03:34:22;14.20;80.80
23147;DHT22;11742;53.532;-1.478;2023-04-06T03:37:08;14.20;80.80
23147;DHT22;11742;53.532;-1.478;2023-04-06T03:40:24;14.20;80.90
23147;DHT22;11742;53.532;-1.478;2023-04-06T03:43:20;14.20;81.00
23147;DHT22;11742;53.532;-1.478;2023-04-06T03:46:39;14.20;81.00
23147;DHT22;11742;53.532;-1.478;2023-04-06T03:49:24;14.20;80.90
23147;DHT22;11742;53.532;-1.478;2023-04-06T03:52:12;14.20;81.00
23147;DHT22;11742;53.532;-1.478;2023-04-06T03:55:08;14.20;81.00
23147;DHT22;11742;53.532;-1.478;2023-04-06T03:58:09;14.20;81.10
23147;DHT22;11742;53.532;-1.478;2023-04-06T04:01:06;14.20;81.10
23147;DHT22;11742;53.532;-1.478;2023-04-06T04:03:54;14.20;81.10
23147;DHT22;11742;53.532;-1.478;2023-04-06T04:06:40;14.20;81.10
23147;DHT22;11742;53.532;-1.478;2023-04-06T04:09:27;14.20;81.10
23147;DHT22;11742;53.532;-1.478;2023-04-06T04:12:16;14.20;81.10
23147;DHT22;11742;53.532;-1.478;2023-04-06T04:15:16;14.20;81.10
23147;DHT22;11742;53.532;-1.478;2023-04-06T04:18:21;14.20;81.10
23147;DHT22;11742;53.532;-1.478;2023-04-06T04:21:13;14.20;81.10
23147;DHT22;11742;53.532;-1.478;2023-04-06T04:24:03;14.20;81.20
23147;DHT22;11742;53.532;-1.478;2023-04-06T04:26:47;14.20;81.10
23147;DHT22;11742;53.532;-1.478;2023-04-06T04:29:32;14.20;81.20
23147;DHT22;11742;53.532;-1.478;2023-04-06T04:32:18;14.20;81.10
23147;DHT22;11742;53.532;-1.478;2023-04-06T04:35:14;14.20;81.10
23147;DHT22;11742;53.532;-1.478;2023-04-06T04:38:03;14.20;81.20
23147;DHT22;11742;53.532;-1.478;2023-04-06T04:40:55;14.20;81.10
23147;DHT22;11742;53.532;-1.478;2023-04-06T04:43:43;14.20;81.10
23147;DHT22;11742;53.532;-1.478;2023-04-06T04:46:32;14.20;81.20
23147;DHT22;11742;53.532;-1.478;2023-04-06T04:49:24;14.20;81.20
23147;DHT22;11742;53.532;-1.478;2023-04-06T04:52:10;14.20;81.10
23147;DHT22;11742;53.532;-1.478;2023-04-06T04:55:01;14.20;81.20
23147;DHT22;11742;53.532;-1.478;2023-04-06T04:57:51;14.20;81.20
23147;DHT22;11742;53.532;-1.478;2023-04-06T05:00:51;14.20;81.20
23147;DHT22;11742;53.532;-1.478;2023-04-06T05:03:37;14.20;81.30
23147;DHT22;11742;53.532;-1.478;2023-04-06T05:06:36;14.20;81.30
23147;DHT22;11742;53.532;-1.478;2023-04-06T05:09:20;14.20;81.30
23147;DHT22;11742;53.532;-1.478;2023-04-06T05:12:05;14.20;81.40
23147;DHT22;11742;53.532;-1.478;2023-04-06T05:14:50;14.20;81.40
23147;DHT22;11742;53.532;-1.478;2023-04-06T05:18:01;14.20;81.40
23147;DHT22;11742;53.532;-1.478;2023-04-06T05:21:06;14.20;81.50
23147;DHT22;11742;53.532;-1.478;2023-04-06T05:23:50;14.20;81.50
23147;DHT22;11742;53.532;-1.478;2023-04-06T05:26:46;14.20;81.50
23147;DHT22;11742;53.532;-1.478;2023-04-06T05:29:31;14.20;81.50
23147;DHT22;11742;53.532;-1.478;2023-04-06T05:32:17;14.20;81.50
23147;DHT22;11742;53.532;-1.478;2023-04-06T05:35:14;14.10;81.50
23147;DHT22;11742;53.532;-1.478;2023-04-06T05:38:02;14.10;81.60
23147;DHT22;11742;53.532;-1.478;2023-04-06T05:40:50;14.20;81.70
23147;DHT22;11742;53.532;-1.478;2023-04-06T05:43:44;14.20;81.70
23147;DHT22;11742;53.532;-1.478;2023-04-06T05:46:28;14.20;81.70
23147;DHT22;11742;53.532;-1.478;2023-04-06T05:49:13;14.20;81.70
23147;DHT22;11742;53.532;-1.478;2023-04-06T05:52:00;14.20;81.80
23147;DHT22;11742;53.532;-1.478;2023-04-06T05:54:48;14.20;81.80
23147;DHT22;11742;53.532;-1.478;2023-04-06T05:57:36;14.20;81.90
23147;DHT22;11742;53.532;-1.478;2023-04-06T06:00:27;14.20;81.90
23147;DHT22;11742;53.532;-1.478;2023-04-06T06:03:26;14.20;81.90
23147;DHT22;11742;53.532;-1.478;2023-04-06T06:06:10;14.20;82.00
23147;DHT22;11742;53.532;-1.478;2023-04-06T06:08:58;14.20;82.00
23147;DHT22;11742;53.532;-1.478;2023-04-06T06:11:48;14.20;81.90
23147;DHT22;11742;53.532;-1.478;2023-04-06T06:14:34;14.20;81.90
23147;DHT22;11742;53.532;-1.478;2023-04-06T06:17:22;14.20;82.00
23147;DHT22;11742;53.532;-1.478;2023-04-06T06:20:21;14.20;82.10
23147;DHT22;11742;53.532;-1.478;2023-04-06T06:23:06;14.20;82.00
23147;DHT22;11742;53.532;-1.478;2023-04-06T06:25:53;14.20;82.00
23147;DHT22;11742;53.532;-1.478;2023-04-06T06:28:46;14.20;82.00
23147;DHT22;11742;53.532;-1.478;2023-04-06T06:31:57;14.20;82.10
23147;DHT22;11742;53.532;-1.478;2023-04-06T06:34:41;14.20;82.00
23147;DHT22;11742;53.532;-1.478;2023-04-06T06:37:27;14.20;82.00
23147;DHT22;11742;53.532;-1.478;2023-04-06T06:40:11;14.20;82.20
23147;DHT22;11742;53.532;-1.478;2023-04-06T06:42:58;14.20;82.20
23147;DHT22;11742;53.532;-1.478;2023-04-06T06:45:44;14.20;82.20
23147;DHT22;11742;53.532;-1.478;2023-04-06T06:48:31;14.20;82.30
23147;DHT22;11742;53.532;-1.478;2023-04-06T06:51:18;14.20;82.40
23147;DHT22;11742;53.532;-1.478;2023-04-06T06:54:08;14.20;82.20
23147;DHT22;11742;53.532;-1.478;2023-04-06T06:56:55;14.20;82.20
23147;DHT22;11742;53.532;-1.478;2023-04-06T06:59:44;14.20;82.20
23147;DHT22;11742;53.532;-1.478;2023-04-06T07:02:33;14.20;82.40
23147;DHT22;11742;53.532;-1.478;2023-04-06T07:05:24;14.20;82.50
23147;DHT22;11742;53.532;-1.478;2023-04-06T07:08:09;14.20;82.70
23147;DHT22;11742;53.532;-1.478;2023-04-06T07:11:04;14.20;82.90
23147;DHT22;11742;53.532;-1.478;2023-04-06T07:14:06;14.30;83.00
23147;DHT22;11742;53.532;-1.478;2023-04-06T07:16:55;14.30;83.10
23147;DHT22;11742;53.532;-1.478;2023-04-06T07:20:02;14.20;83.00
23147;DHT22;11742;53.532;-1.478;2023-04-06T07:22:46;14.30;83.20
23147;DHT22;11742;53.532;-1.478;2023-04-06T07:25:37;14.30;83.20
23147;DHT22;11742;53.532;-1.478;2023-04-06T07:28:26;14.30;83.10
23147;DHT22;11742;53.532;-1.478;2023-04-06T07:31:13;14.30;83.10
23147;DHT22;11742;53.532;-1.478;2023-04-06T07:34:11;14.30;83.10
23147;DHT22;11742;53.532;-1.478;2023-04-06T07:36:56;14.30;83.10
23147;DHT22;11742;53.532;-1.478;2023-04-06T07:39:41;14.30;82.90
23147;DHT22;11742;53.532;-1.478;2023-04-06T07:42:35;14.30;82.70
23147;DHT22;11742;53.532;-1.478;2023-04-06T07:45:24;14.30;82.80
23147;DHT22;11742;53.532;-1.478;2023-04-06T07:48:19;14.30;82.70
23147;DHT22;11742;53.532;-1.478;2023-04-06T07:51:10;14.30;82.90
23147;DHT22;11742;53.532;-1.478;2023-04-06T07:54:01;14.30;82.90
23147;DHT22;11742;53.532;-1.478;2023-04-06T07:56:46;14.30;83.00
23147;DHT22;11742;53.532;-1.478;2023-04-06T07:59:39;14.30;82.90
23147;DHT22;11742;53.532;-1.478;2023-04-06T08:02:33;14.30;82.90
23147;DHT22;11742;53.532;-1.478;2023-04-06T08:05:18;14.30;83.00
23147;DHT22;11742;53.532;-1.478;2023-04-06T08:08:12;14.30;83.10
23147;DHT22;11742;53.532;-1.478;2023-04-06T08:11:01;14.30;83.10
23147;DHT22;11742;53.532;-1.478;2023-04-06T08:14:09;14.30;83.30
23147;DHT22;11742;53.532;-1.478;2023-04-06T08:16:55;14.30;83.50
23147;DHT22;11742;53.532;-1.478;2023-04-06T08:19:46;14.30;83.90
23147;DHT22;11742;53.532;-1.478;2023-04-06T08:22:36;14.30;84.00
23147;DHT22;11742;53.532;-1.478;2023-04-06T08:25:46;14.30;84.30
23147;DHT22;11742;53.532;-1.478;2023-04-06T08:28:33;14.40;85.00
23147;DHT22;11742;53.532;-1.478;2023-04-06T08:31:19;14.40;85.90
23147;DHT22;11742;53.532;-1.478;2023-04-06T08:34:07;14.40;86.00
23147;DHT22;11742;53.532;-1.478;2023-04-06T08:37:02;14.40;85.50
23147;DHT22;11742;53.532;-1.478;2023-04-06T08:40:01;14.50;85.20
23147;DHT22;11742;53.532;-1.478;2023-04-06T08:43:13;14.50;86.10
23147;DHT22;11742;53.532;-1.478;2023-04-06T08:46:12;14.60;85.70
23147;DHT22;11742;53.532;-1.478;2023-04-06T08:49:15;14.60;85.40
23147;DHT22;11742;53.532;-1.478;2023-04-06T08:52:00;14.60;85.00
23147;DHT22;11742;53.532;-1.478;2023-04-06T08:54:50;14.70;85.00
23147;DHT22;11742;53.532;-1.478;2023-04-06T08:57:35;14.70;84.50
23147;DHT22;11742;53.532;-1.478;2023-04-06T09:00:25;14.70;84.30
23147;DHT22;11742;53.532;-1.478;2023-04-06T09:03:14;14.70;84.00
23147;DHT22;11742;53.532;-1.478;2023-04-06T09:06:26;14.80;83.70
23147;DHT22;11742;53.532;-1.478;2023-04-06T09:09:16;14.80;83.50
23147;DHT22;11742;53.532;-1.478;2023-04-06T09:12:43;14.80;83.50
23147;DHT22;11742;53.532;-1.478;2023-04-06T09:15:22;14.80;83.30
23147;DHT22;11742;53.532;-1.478;2023-04-06T09:18:27;14.80;83.40
23147;DHT22;11742;53.532;-1.478;2023-04-06T09:21:17;14.90;83.20
23147;DHT22;11742;53.532;-1.478;2023-04-06T09:24:02;14.90;83.40
23147;DHT22;11742;53.532;-1.478;2023-04-06T09:26:53;14.90;83.40
23147;DHT22;11742;53.532;-1.478;2023-04-06T09:29:41;14.90;83.00
23147;DHT22;11742;53.532;-1.478;2023-04-06T09:32:31;15.00;83.00
23147;DHT22;11742;53.532;-1.478;2023-04-06T09:35:35;15.00;82.80
23147;DHT22;11742;53.532;-1.478;2023-04-06T09:38:29;15.00;82.80
23147;DHT22;11742;53.532;-1.478;2023-04-06T09:41:25;15.00;82.30
23147;DHT22;11742;53.532;-1.478;2023-04-06T09:44:12;15.10;81.70
23147;DHT22;11742;53.532;-1.478;2023-04-06T09:47:08;15.10;81.30
23147;DHT22;11742;53.532;-1.478;2023-04-06T09:49:58;15.20;81.30
23147;DHT22;11742;53.532;-1.478;2023-04-06T09:52:49;15.20;81.40
23147;DHT22;11742;53.532;-1.478;2023-04-06T09:55:36;15.20;81.40
23147;DHT22;11742;53.532;-1.478;2023-04-06T09:58:24;15.30;81.60
23147;DHT22;11742;53.532;-1.478;2023-04-06T10:01:15;15.30;81.60
23147;DHT22;11742;53.532;-1.478;2023-04-06T10:04:11;15.40;81.60
23147;DHT22;11742;53.532;-1.478;2023-04-06T10:07:14;15.50;81.80
23147;DHT22;11742;53.532;-1.478;2023-04-06T10:09:59;15.50;82.80
23147;DHT22;11742;53.532;-1.478;2023-04-06T10:12:52;15.60;82.10
23147;DHT22;11742;53.532;-1.478;2023-04-06T10:15:39;15.70;82.30
23147;DHT22;11742;53.532;-1.478;2023-04-06T10:18:46;15.70;82.30
23147;DHT22;11742;53.532;-1.478;2023-04-06T10:21:40;15.80;82.40
23147;DHT22;11742;53.532;-1.478;2023-04-06T10:24:40;15.90;82.50
23147;DHT22;11742;53.532;-1.478;2023-04-06T10:27:50;16.00;82.50
23147;DHT22;11742;53.532;-1.478;2023-04-06T10:30:42;16.10;82.40
23147;DHT22;11742;53.532;-1.478;2023-04-06T10:34:08;16.10;82.30
23147;DHT22;11742;53.532;-1.478;2023-04-06T10:36:58;16.20;82.20
23147;DHT22;11742;53.532;-1.478;2023-04-06T10:39:52;16.20;82.20
23147;DHT22;11742;53.532;-1.478;2023-04-06T10:45:45;16.30;82.20
23147;DHT22;11742;53.532;-1.478;2023-04-06T10:48:40;16.40;82.10
23147;DHT22;11742;53.532;-1.478;2023-04-06T10:51:28;16.40;82.00
23147;DHT22;11742;53.532;-1.478;2023-04-06T10:54:13;16.50;82.10
23147;DHT22;11742;53.532;-1.478;2023-04-06T10:56:59;16.60;81.60
23147;DHT22;11742;53.532;-1.478;2023-04-06T11:00:11;16.60;81.70
23147;DHT22;11742;53.532;-1.478;2023-04-06T11:03:25;16.70;81.70
23147;DHT22;11742;53.532;-1.478;2023-04-06T11:06:22;16.70;81.50
23147;DHT22;11742;53.532;-1.478;2023-04-06T11:09:27;16.80;81.30
23147;DHT22;11742;53.532;-1.478;2023-04-06T11:12:26;16.90;81.10
23147;DHT22;11742;53.532;-1.478;2023-04-06T11:15:20;16.90;80.90
23147;DHT22;11742;53.532;-1.478;2023-04-06T11:18:08;17.00;80.80
23147;DHT22;11742;53.532;-1.478;2023-04-06T11:21:04;17.10;80.80
23147;DHT22;11742;53.532;-1.478;2023-04-06T11:24:17;17.10;80.60
23147;DHT22;11742;53.532;-1.478;2023-04-06T11:27:02;17.20;80.60
23147;DHT22;11742;53.532;-1.478;2023-04-06T11:30:14;17.30;80.70
23147;DHT22;11742;53.532;-1.478;2023-04-06T11:33:00;17.40;80.80
23147;DHT22;11742;53.532;-1.478;2023-04-06T11:35:50;17.50;80.70
23147;DHT22;11742;53.532;-1.478;2023-04-06T11:38:38;17.50;80.60
23147;DHT22;11742;53.532;-1.478;2023-04-06T11:41:24;17.60;80.50
23147;DHT22;11742;53.532;-1.478;2023-04-06T11:44:26;17.60;80.40
23147;DHT22;11742;53.532;-1.478;2023-04-06T11:47:11;17.70;80.30
23147;DHT22;11742;53.532;-1.478;2023-04-06T11:49:55;17.80;80.20
23147;DHT22;11742;53.532;-1.478;2023-04-06T11:52:40;17.90;80.30
23147;DHT22;11742;53.532;-1.478;2023-04-06T11:55:24;18.00;80.20
23147;DHT22;11742;53.532;-1.478;2023-04-06T11:58:09;18.00;80.00
23147;DHT22;11742;53.532;-1.478;2023-04-06T12:00:53;18.10;79.90
23147;DHT22;11742;53.532;-1.478;2023-04-06T12:03:37;18.10;79.90
23147;DHT22;11742;53.532;-1.478;2023-04-06T12:06:22;18.20;79.90
23147;DHT22;11742;53.532;-1.478;2023-04-06T12:09:06;18.30;79.80
23147;DHT22;11742;53.532;-1.478;2023-04-06T12:11:51;18.40;79.80
23147;DHT22;11742;53.532;-1.478;2023-04-06T12:14:35;18.40;79.70
23147;DHT22;11742;53.532;-1.478;2023-04-06T12:17:19;18.50;79.70
23147;DHT22;11742;53.532;-1.478;2023-04-06T12:20:04;18.60;79.60
23147;DHT22;11742;53.532;-1.478;2023-04-06T12:22:49;18.60;79.20
23147;DHT22;11742;53.532;-1.478;2023-04-06T12:25:33;18.70;78.50
23147;DHT22;11742;53.532;-1.478;2023-04-06T12:28:17;18.80;78.00
23147;DHT22;11742;53.532;-1.478;2023-04-06T12:31:01;18.80;77.90
23147;DHT22;11742;53.532;-1.478;2023-04-06T12:33:46;18.80;77.50
23147;DHT22;11742;53.532;-1.478;2023-04-06T12:36:30;18.80;76.70
23147;DHT22;11742;53.532;-1.478;2023-04-06T12:39:15;18.90;76.80
23147;DHT22;11742;53.532;-1.478;2023-04-06T12:41:59;18.90;76.20
23147;DHT22;11742;53.532;-1.478;2023-04-06T12:44:43;18.90;76.10
23147;DHT22;11742;53.532;-1.478;2023-04-06T12:47:28;18.90;76.00
23147;DHT22;11742;53.532;-1.478;2023-04-06T12:50:12;19.00;76.50
23147;DHT22;11742;53.532;-1.478;2023-04-06T12:52:56;19.00;76.20
23147;DHT22;11742;53.532;-1.478;2023-04-06T12:55:41;19.00;76.10
23147;DHT22;11742;53.532;-1.478;2023-04-06T12:58:25;19.00;75.40
23147;DHT22;11742;53.532;-1.478;2023-04-06T13:01:13;19.10;74.20
23147;DHT22;11742;53.532;-1.478;2023-04-06T13:03:57;19.10;73.60
23147;DHT22;11742;53.532;-1.478;2023-04-06T13:06:43;19.10;73.50
23147;DHT22;11742;53.532;-1.478;2023-04-06T13:09:27;19.10;73.90
23147;DHT22;11742;53.532;-1.478;2023-04-06T13:12:11;19.10;73.00
23147;DHT22;11742;53.532;-1.478;2023-04-06T13:14:55;19.10;72.20
23147;DHT22;11742;53.532;-1.478;2023-04-06T13:17:40;19.10;71.70
23147;DHT22;11742;53.532;-1.478;2023-04-06T13:20:24;19.10;71.80
23147;DHT22;11742;53.532;-1.478;2023-04-06T13:23:09;19.10;71.30
23147;DHT22;11742;53.532;-1.478;2023-04-06T13:26:01;19.10;71.50
23147;DHT22;11742;53.532;-1.478;2023-04-06T13:28:45;19.10;71.40
23147;DHT22;11742;53.532;-1.478;2023-04-06T13:31:29;19.20;71.30
23147;DHT22;11742;53.532;-1.478;2023-04-06T13:34:14;19.20;70.50
23147;DHT22;11742;53.532;-1.478;2023-04-06T13:36:58;19.20;70.30
23147;DHT22;11742;53.532;-1.478;2023-04-06T13:39:42;19.20;70.10
23147;DHT22;11742;53.532;-1.478;2023-04-06T13:42:27;19.20;70.40
23147;DHT22;11742;53.532;-1.478;2023-04-06T13:45:11;19.20;70.40
23147;DHT22;11742;53.532;-1.478;2023-04-06T13:47:55;19.30;70.80
23147;DHT22;11742;53.532;-1.478;2023-04-06T13:50:40;19.30;70.30
23147;DHT22;11742;53.532;-1.478;2023-04-06T13:53:24;19.30;69.50
23147;DHT22;11742;53.532;-1.478;2023-04-06T13:56:09;19.30;69.20
23147;DHT22;11742;53.532;-1.478;2023-04-06T13:58:53;19.40;69.00
23147;DHT22;11742;53.532;-1.478;2023-04-06T14:01:39;19.40;68.90
23147;DHT22;11742;53.532;-1.478;2023-04-06T14:04:23;19.40;68.60
23147;DHT22;11742;53.532;-1.478;2023-04-06T14:07:08;19.40;68.40
23147;DHT22;11742;53.532;-1.478;2023-04-06T14:09:52;19.50;68.30
23147;DHT22;11742;53.532;-1.478;2023-04-06T14:12:36;19.40;68.00
23147;DHT22;11742;53.532;-1.478;2023-04-06T14:15:21;19.50;68.10
23147;DHT22;11742;53.532;-1.478;2023-04-06T14:18:07;19.50;67.70
23147;DHT22;11742;53.532;-1.478;2023-04-06T14:20:55;19.50;67.40
23147;DHT22;11742;53.532;-1.478;2023-04-06T14:23:40;19.50;66.90
23147;DHT22;11742;53.532;-1.478;2023-04-06T14:26:24;19.50;66.90
23147;DHT22;11742;53.532;-1.478;2023-04-06T14:29:08;19.50;66.60
23147;DHT22;11742;53.532;-1.478;2023-04-06T14:31:52;19.50;66.50
23147;DHT22;11742;53.532;-1.478;2023-04-06T14:34:37;19.40;66.30
23147;DHT22;11742;53.532;-1.478;2023-04-06T14:37:22;19.40;66.20
23147;DHT22;11742;53.532;-1.478;2023-04-06T14:40:06;19.40;66.30
23147;DHT22;11742;53.532;-1.478;2023-04-06T14:42:50;19.40;66.00
23147;DHT22;11742;53.532;-1.478;2023-04-06T14:45:35;19.40;65.50
23147;DHT22;11742;53.532;-1.478;2023-04-06T14:48:20;19.40;65.20
23147;DHT22;11742;53.532;-1.478;2023-04-06T14:51:04;19.40;65.40
23147;DHT22;11742;53.532;-1.478;2023-04-06T14:53:48;19.40;65.80
23147;DHT22;11742;53.532;-1.478;2023-04-06T14:56:33;19.40;65.50
23147;DHT22;11742;53.532;-1.478;2023-04-06T14:59:17;19.40;65.40
23147;DHT22;11742;53.532;-1.478;2023-04-06T15:02:02;19.40;65.60
23147;DHT22;11742;53.532;-1.478;2023-04-06T15:04:46;19.40;65.50
23147;DHT22;11742;53.532;-1.478;2023-04-06T15:07:30;19.40;65.40
23147;DHT22;11742;53.532;-1.478;2023-04-06T15:10:15;19.40;65.50
23147;DHT22;11742;53.532;-1.478;2023-04-06T15:12:59;19.50;65.60
23147;DHT22;11742;53.532;-1.478;2023-04-06T15:15:43;19.50;64.90
23147;DHT22;11742;53.532;-1.478;2023-04-06T15:18:27;19.40;65.00
23147;DHT22;11742;53.532;-1.478;2023-04-06T15:21:11;19.60;64.90
23147;DHT22;11742;53.532;-1.478;2023-04-06T15:23:56;19.50;63.90
23147;DHT22;11742;53.532;-1.478;2023-04-06T15:26:40;19.50;64.30
23147;DHT22;11742;53.532;-1.478;2023-04-06T15:29:25;19.50;64.50
23147;DHT22;11742;53.532;-1.478;2023-04-06T15:32:09;19.50;64.60
23147;DHT22;11742;53.532;-1.478;2023-04-06T15:34:53;19.50;64.60
23147;DHT22;11742;53.532;-1.478;2023-04-06T15:37:38;19.50;64.60
23147;DHT22;11742;53.532;-1.478;2023-04-06T15:40:23;19.50;64.50
23147;DHT22;11742;53.532;-1.478;2023-04-06T15:43:07;19.50;64.30
23147;DHT22;11742;53.532;-1.478;2023-04-06T15:45:52;19.60;64.50
23147;DHT22;11742;53.532;-1.478;2023-04-06T15:48:36;19.50;64.10
23147;DHT22;11742;53.532;-1.478;2023-04-06T15:51:21;19.50;64.10
23147;DHT22;11742;53.532;-1.478;2023-04-06T15:54:05;19.50;64.20
23147;DHT22;11742;53.532;-1.478;2023-04-06T15:56:49;19.50;64.30
23147;DHT22;11742;53.532;-1.478;2023-04-06T15:59:34;19.50;64.20
23147;DHT22;11742;53.532;-1.478;2023-04-06T16:02:18;19.50;64.30
23147;DHT22;11742;53.532;-1.478;2023-04-06T16:05:03;19.50;64.30
23147;DHT22;11742;53.532;-1.478;2023-04-06T16:07:48;19.50;64.20
23147;DHT22;11742;53.532;-1.478;2023-04-06T16:10:32;19.40;64.00
23147;DHT22;11742;53.532;-1.478;2023-04-06T16:13:16;19.40;64.00
23147;DHT22;11742;53.532;-1.478;2023-04-06T16:16:00;19.40;63.90
23147;DHT22;11742;53.532;-1.478;2023-04-06T16:18:46;19.40;64.20
23147;DHT22;11742;53.532;-1.478;2023-04-06T16:21:30;19.40;64.40
23147;DHT22;11742;53.532;-1.478;2023-04-06T16:24:14;19.40;64.30
23147;DHT22;11742;53.532;-1.478;2023-04-06T16:26:59;19.30;64.30
23147;DHT22;11742;53.532;-1.478;2023-04-06T16:29:43;19.30;64.50
23147;DHT22;11742;53.532;-1.478;2023-04-06T16:32:27;19.30;64.50
23147;DHT22;11742;53.532;-1.478;2023-04-06T16:35:11;19.30;64.60
23147;DHT22;11742;53.532;-1.478;2023-04-06T16:37:56;19.30;64.50
23147;DHT22;11742;53.532;-1.478;2023-04-06T16:40:40;19.20;64.40
23147;DHT22;11742;53.532;-1.478;2023-04-06T16:43:24;19.20;64.30
23147;DHT22;11742;53.532;-1.478;2023-04-06T16:46:09;19.20;64.50
23147;DHT22;11742;53.532;-1.478;2023-04-06T16:48:53;19.10;64.50
23147;DHT22;11742;53.532;-1.478;2023-04-06T16:51:39;19.10;65.20
23147;DHT22;11742;53.532;-1.478;2023-04-06T16:54:23;19.10;66.00
23147;DHT22;11742;53.532;-1.478;2023-04-06T16:57:07;19.10;66.50
23147;DHT22;11742;53.532;-1.478;2023-04-06T16:59:52;19.00;66.80
23147;DHT22;11742;53.532;-1.478;2023-04-06T17:02:36;18.90;67.30
23147;DHT22;11742;53.532;-1.478;2023-04-06T17:05:21;18.90;67.40
23147;DHT22;11742;53.532;-1.478;2023-04-06T17:08:09;18.80;67.60
23147;DHT22;11742;53.532;-1.478;2023-04-06T17:10:53;18.80;67.80
23147;DHT22;11742;53.532;-1.478;2023-04-06T17:13:39;18.70;67.90
23147;DHT22;11742;53.532;-1.478;2023-04-06T17:16:23;18.70;67.90
23147;DHT22;11742;53.532;-1.478;2023-04-06T17:19:08;18.60;68.00
23147;DHT22;11742;53.532;-1.478;2023-04-06T17:21:52;18.60;68.10
23147;DHT22;11742;53.532;-1.478;2023-04-06T17:24:36;18.60;68.10
23147;DHT22;11742;53.532;-1.478;2023-04-06T17:27:20;18.50;68.10
23147;DHT22;11742;53.532;-1.478;2023-04-06T17:30:07;18.50;68.10
23147;DHT22;11742;53.532;-1.478;2023-04-06T17:32:52;18.50;68.30
23147;DHT22;11742;53.532;-1.478;2023-04-06T17:35:36;18.40;68.20
23147;DHT22;11742;53.532;-1.478;2023-04-06T17:38:20;18.40;68.10